createdAt,value
2018-09-20T00:00:04.652Z,0
2018-09-20T00:01:04.820Z,0
2018-09-20T00:02:04.828Z,0
2018-09-20T00:03:04.802Z,0
2018-09-20T00:04:04.959Z,0
2018-09-20T00:05:05.052Z,0
2018-09-20T00:06:04.980Z,0
2018-09-20T00:07:04.970Z,0
2018-09-20T00:08:05.040Z,0
2018-09-20T00:09:05.069Z,0
2018-09-20T00:10:05.113Z,0
2018-09-20T00:11:05.243Z,0
2018-09-20T00:12:05.360Z,0
2018-09-20T00:13:05.509Z,0
2018-09-20T00:14:05.921Z,0
2018-09-20T00:15:05.707Z,0
2018-09-20T00:16:06.370Z,0
2018-09-20T00:17:05.967Z,0
2018-09-20T00:18:06.155Z,0
2018-09-20T00:19:06.169Z,0
2018-09-20T00:20:06.175Z,0
2018-09-20T00:21:06.279Z,0
2018-09-20T00:22:06.444Z,0
2018-09-20T00:23:06.445Z,0
2018-09-20T00:24:06.655Z,0
2018-09-20T00:25:06.733Z,0
2018-09-20T00:26:06.776Z,0
2018-09-20T00:27:06.831Z,0
2018-09-20T00:28:06.983Z,0
2018-09-20T00:29:07.031Z,0
2018-09-20T00:30:07.041Z,0
2018-09-20T00:31:07.190Z,0
2018-09-20T00:32:07.286Z,0
2018-09-20T00:33:07.479Z,0
2018-09-20T00:34:07.417Z,0
2018-09-20T00:35:07.457Z,0
2018-09-20T00:36:07.463Z,0
2018-09-20T00:37:08.500Z,0
2018-09-20T00:38:07.625Z,0
2018-09-20T00:39:07.680Z,0
2018-09-20T00:40:07.755Z,0
2018-09-20T00:41:07.710Z,0
2018-09-20T00:42:07.769Z,0
2018-09-20T00:43:07.893Z,0
2018-09-20T00:44:08.145Z,0
2018-09-20T00:45:08.121Z,0
2018-09-20T00:46:08.238Z,0
2018-09-20T00:47:08.230Z,0
2018-09-20T00:48:08.505Z,0
2018-09-20T00:49:08.483Z,0
2018-09-20T00:50:08.461Z,0
2018-09-20T00:51:08.521Z,0
2018-09-20T00:52:08.572Z,0
2018-09-20T00:53:08.674Z,0
2018-09-20T00:54:08.660Z,0
2018-09-20T00:55:08.936Z,0
2018-09-20T00:56:08.939Z,0
2018-09-20T00:57:09.067Z,0
2018-09-20T00:58:09.149Z,0
2018-09-20T00:59:09.240Z,0
2018-09-20T01:00:09.298Z,0
2018-09-20T01:01:09.391Z,0
2018-09-20T01:02:09.427Z,0
2018-09-20T01:03:09.658Z,0
2018-09-20T01:04:09.636Z,0
2018-09-20T01:05:09.745Z,0
2018-09-20T01:06:09.884Z,0
2018-09-20T01:07:09.970Z,0
2018-09-20T01:08:10.002Z,0
2018-09-20T01:10:10.134Z,0
2018-09-20T01:11:10.219Z,0
2018-09-20T01:12:10.337Z,0
2018-09-20T01:13:10.595Z,0
2018-09-20T01:14:10.449Z,0
2018-09-20T01:15:10.564Z,0
2018-09-20T01:16:10.742Z,0
2018-09-20T01:17:10.760Z,0
2018-09-20T01:18:10.771Z,0
2018-09-20T01:19:10.839Z,0
2018-09-20T01:20:11.021Z,0
2018-09-20T01:21:11.049Z,0
2018-09-20T01:22:11.094Z,0
2018-09-20T01:23:11.106Z,0
2018-09-20T01:24:11.330Z,0
2018-09-20T01:25:11.223Z,0
2018-09-20T01:26:11.391Z,0
2018-09-20T01:27:12.499Z,0
2018-09-20T01:28:11.477Z,0
2018-09-20T01:29:11.570Z,0
2018-09-20T01:30:11.603Z,0
2018-09-20T01:31:11.857Z,0
2018-09-20T01:32:11.729Z,0
2018-09-20T01:33:11.780Z,0
2018-09-20T01:34:12.887Z,0
2018-09-20T01:35:12.173Z,0
2018-09-20T01:36:12.152Z,0
2018-09-20T01:37:12.268Z,0
2018-09-20T01:38:12.387Z,0
2018-09-20T01:39:12.514Z,0
2018-09-20T01:40:12.451Z,0
2018-09-20T01:41:12.515Z,0
2018-09-20T01:42:12.678Z,0
2018-09-20T01:43:12.682Z,0
2018-09-20T01:44:12.816Z,0
2018-09-20T01:45:12.952Z,0
2018-09-20T01:46:13.173Z,0
2018-09-20T01:47:13.090Z,0
2018-09-20T01:48:13.159Z,0
2018-09-20T01:49:13.139Z,0
2018-09-20T01:50:13.165Z,0
2018-09-20T01:51:13.235Z,0
2018-09-20T01:52:13.289Z,0
2018-09-20T01:53:13.491Z,0
2018-09-20T01:54:13.437Z,0
2018-09-20T01:55:13.467Z,0
2018-09-20T01:56:13.610Z,0
2018-09-20T01:57:13.659Z,0
2018-09-20T01:58:13.639Z,0
2018-09-20T01:59:13.697Z,0
2018-09-20T02:00:13.735Z,0
2018-09-20T02:01:13.875Z,0
2018-09-20T02:02:14.070Z,0
2018-09-20T02:03:13.966Z,0
2018-09-20T02:04:13.975Z,0
2018-09-20T02:05:14.001Z,0
2018-09-20T02:06:14.136Z,0
2018-09-20T02:07:14.215Z,0
2018-09-20T02:08:14.158Z,0
2018-09-20T02:09:14.326Z,0
2018-09-20T02:10:14.325Z,0
2018-09-20T02:11:14.311Z,0
2018-09-20T02:12:14.448Z,0
2018-09-20T02:13:15.446Z,0
2018-09-20T02:14:14.529Z,0
2018-09-20T02:15:14.652Z,0
2018-09-20T02:16:14.805Z,0
2018-09-20T02:17:14.905Z,0
2018-09-20T02:18:14.925Z,0
2018-09-20T02:19:15.075Z,0
2018-09-20T02:20:15.189Z,0
2018-09-20T02:21:15.337Z,0
2018-09-20T02:22:15.406Z,0
2018-09-20T02:23:16.568Z,0
2018-09-20T02:24:15.429Z,0
2018-09-20T02:25:15.739Z,0
2018-09-20T02:26:15.644Z,0
2018-09-20T02:27:15.678Z,0
2018-09-20T02:28:15.846Z,0
2018-09-20T02:29:15.670Z,0
2018-09-20T02:30:15.734Z,0
2018-09-20T02:31:15.826Z,0
2018-09-20T02:32:15.926Z,0
2018-09-20T02:33:15.967Z,0
2018-09-20T02:34:16.059Z,0
2018-09-20T02:35:16.175Z,0
2018-09-20T02:36:16.274Z,0
2018-09-20T02:37:16.312Z,0
2018-09-20T02:38:17.496Z,0
2018-09-20T02:39:16.533Z,0
2018-09-20T02:40:16.762Z,0
2018-09-20T02:41:16.716Z,0
2018-09-20T02:42:16.843Z,0
2018-09-20T02:43:17.065Z,0
2018-09-20T02:44:17.008Z,0
2018-09-20T02:45:17.015Z,0
2018-09-20T02:46:17.119Z,0
2018-09-20T02:47:17.268Z,0
2018-09-20T02:48:17.340Z,0
2018-09-20T02:49:18.491Z,0
2018-09-20T02:50:17.404Z,0
2018-09-20T02:51:17.495Z,0
2018-09-20T02:52:17.511Z,0
2018-09-20T02:53:17.640Z,0
2018-09-20T02:54:17.649Z,0
2018-09-20T02:55:17.621Z,0
2018-09-20T02:56:17.741Z,0
2018-09-20T02:57:17.868Z,0
2018-09-20T02:58:18.082Z,0
2018-09-20T02:59:18.001Z,0
2018-09-20T03:00:18.007Z,0
2018-09-20T03:01:18.136Z,0
2018-09-20T03:02:18.315Z,0
2018-09-20T03:03:18.392Z,0
2018-09-20T03:04:18.482Z,0
2018-09-20T03:05:18.474Z,0
2018-09-20T03:06:18.523Z,0
2018-09-20T03:07:18.698Z,0
2018-09-20T03:08:18.738Z,0
2018-09-20T03:09:18.880Z,0
2018-09-20T03:10:18.960Z,0
2018-09-20T03:11:19.148Z,0
2018-09-20T03:12:19.144Z,0
2018-09-20T03:13:19.229Z,0
2018-09-20T03:14:19.460Z,0
2018-09-20T03:15:19.549Z,0
2018-09-20T03:16:19.411Z,0
2018-09-20T03:17:19.539Z,0
2018-09-20T03:18:19.688Z,0
2018-09-20T03:19:20.011Z,0
2018-09-20T03:20:19.938Z,0
2018-09-20T03:21:20.077Z,0
2018-09-20T03:22:21.214Z,0
2018-09-20T03:23:20.395Z,0
2018-09-20T03:24:20.357Z,0
2018-09-20T03:25:20.406Z,0
2018-09-20T03:26:21.391Z,0
2018-09-20T03:27:20.409Z,0
2018-09-20T03:28:20.471Z,0
2018-09-20T03:29:20.517Z,0
2018-09-20T03:30:20.676Z,0
2018-09-20T03:31:20.534Z,0
2018-09-20T03:32:20.497Z,0
2018-09-20T03:33:20.628Z,0
2018-09-20T03:34:20.677Z,0
2018-09-20T03:35:20.758Z,0
2018-09-20T03:36:20.892Z,0
2018-09-20T03:37:21.928Z,0
2018-09-20T03:38:21.044Z,0
2018-09-20T03:39:21.062Z,0
2018-09-20T03:40:21.136Z,0
2018-09-20T03:41:21.421Z,0
2018-09-20T03:42:21.378Z,0
2018-09-20T03:43:21.421Z,0
2018-09-20T03:44:21.452Z,0
2018-09-20T03:45:21.465Z,0
2018-09-20T03:46:21.552Z,0
2018-09-20T03:47:21.604Z,0
2018-09-20T03:48:21.711Z,0
2018-09-20T03:49:21.787Z,0
2018-09-20T03:50:21.876Z,0
2018-09-20T03:51:22.027Z,0
2018-09-20T03:52:22.196Z,0
2018-09-20T03:53:22.125Z,0
2018-09-20T03:54:22.238Z,0
2018-09-20T03:55:22.241Z,0
2018-09-20T03:56:22.419Z,0
2018-09-20T03:57:22.427Z,0
2018-09-20T03:58:22.589Z,0
2018-09-20T03:59:22.540Z,0
2018-09-20T04:00:22.706Z,0
2018-09-20T04:01:22.791Z,0
2018-09-20T04:02:22.802Z,0
2018-09-20T04:03:22.784Z,0
2018-09-20T04:04:22.817Z,0
2018-09-20T04:05:22.895Z,0
2018-09-20T04:06:22.857Z,0
2018-09-20T04:07:23.015Z,0
2018-09-20T04:08:23.069Z,0
2018-09-20T04:09:23.154Z,0
2018-09-20T04:10:23.216Z,0
2018-09-20T04:11:23.336Z,0
2018-09-20T04:12:23.499Z,0
2018-09-20T04:13:23.526Z,0
2018-09-20T04:14:23.612Z,0
2018-09-20T04:15:23.733Z,0
2018-09-20T04:16:24.049Z,0
2018-09-20T04:17:23.928Z,1
2018-09-20T04:18:23.977Z,0
2018-09-20T04:19:23.959Z,0
2018-09-20T04:20:24.215Z,0
2018-09-20T04:21:24.083Z,0
2018-09-20T04:22:24.217Z,0
2018-09-20T04:23:24.454Z,0
2018-09-20T04:24:24.311Z,0
2018-09-20T04:25:24.311Z,0
2018-09-20T04:26:24.375Z,0
2018-09-20T04:27:24.586Z,0
2018-09-20T04:28:24.578Z,0
2018-09-20T04:29:24.627Z,1
2018-09-20T04:30:24.711Z,1
2018-09-20T04:31:24.736Z,1
2018-09-20T04:32:24.944Z,1
2018-09-20T04:33:24.886Z,1
2018-09-20T04:34:24.934Z,1
2018-09-20T04:35:25.014Z,1
2018-09-20T04:36:25.033Z,0
2018-09-20T04:37:25.055Z,1
2018-09-20T04:38:25.057Z,1
2018-09-20T04:39:25.214Z,1
2018-09-20T04:40:25.337Z,1
2018-09-20T04:41:25.360Z,1
2018-09-20T04:42:25.354Z,1
2018-09-20T04:43:25.417Z,2
2018-09-20T04:44:25.521Z,2
2018-09-20T04:45:25.672Z,2
2018-09-20T04:46:25.585Z,3
2018-09-20T04:47:25.611Z,4
2018-09-20T04:48:25.786Z,4
2018-09-20T04:49:25.783Z,6
2018-09-20T04:50:25.850Z,7
2018-09-20T04:51:25.915Z,8
2018-09-20T04:52:26.005Z,9
2018-09-20T04:53:26.177Z,11
2018-09-20T04:54:26.108Z,13
2018-09-20T04:55:26.140Z,15
2018-09-20T04:56:26.174Z,18
2018-09-20T04:57:26.265Z,21
2018-09-20T04:58:26.415Z,25
2018-09-20T05:00:26.506Z,33
2018-09-20T05:01:27.612Z,38
2018-09-20T05:02:26.647Z,42
2018-09-20T05:03:26.703Z,48
2018-09-20T05:04:26.762Z,55
2018-09-20T05:05:26.928Z,62
2018-09-20T05:06:26.992Z,70
2018-09-20T05:11:09.620Z,108
2018-09-20T05:11:51.785Z,113
2018-09-20T05:12:52.033Z,125
2018-09-20T05:13:51.977Z,134
2018-09-20T05:14:52.007Z,146
2018-09-20T05:16:30.910Z,170
2018-09-20T05:17:31.090Z,179
2018-09-20T05:18:31.169Z,189
2018-09-20T05:19:31.524Z,201
2018-09-20T05:20:31.408Z,218
2018-09-20T05:21:31.473Z,227
2018-09-20T05:22:31.725Z,240
2018-09-20T05:23:31.578Z,254
2018-09-20T05:24:31.678Z,273
2018-09-20T05:25:31.781Z,290
2018-09-20T05:37:46.066Z,486
2018-09-20T05:38:46.193Z,506
2018-09-20T05:40:46.302Z,532
2018-09-20T05:41:46.342Z,547
2018-09-20T05:42:46.420Z,547
2018-09-20T05:43:46.368Z,581
2018-09-20T05:44:46.557Z,600
2018-09-20T05:45:46.622Z,605
2018-09-20T05:46:46.618Z,608
2018-09-20T05:47:46.697Z,644
2018-09-20T05:48:46.694Z,665
2018-09-20T05:49:46.716Z,654
2018-09-20T05:50:46.855Z,672
2018-09-20T05:51:47.018Z,705
2018-09-20T05:52:46.957Z,723
2018-09-20T05:53:47.143Z,729
2018-09-20T05:54:47.235Z,721
2018-09-20T05:55:47.285Z,747
2018-09-20T05:56:47.252Z,774
2018-09-20T05:57:47.224Z,795
2018-09-20T05:58:47.303Z,808
2018-09-20T05:59:47.288Z,794
2018-09-20T06:00:47.406Z,811
2018-09-20T06:01:47.553Z,837
2018-09-20T06:02:47.688Z,851
2018-09-20T06:03:47.688Z,872
2018-09-20T06:04:47.633Z,895
2018-09-20T06:05:47.741Z,924
2018-09-20T06:06:47.869Z,912
2018-09-20T06:07:47.836Z,894
2018-09-20T06:08:47.922Z,921
2018-09-20T06:09:47.930Z,931
2018-09-20T06:10:48.083Z,962
2018-09-20T06:11:48.146Z,979
2018-09-20T06:12:48.185Z,1006
2018-09-20T06:13:48.217Z,1023
2018-09-20T06:14:48.204Z,1033
2018-09-20T06:15:48.298Z,1039
2018-09-20T06:16:48.323Z,1027
2018-09-20T06:17:48.432Z,1032
2018-09-20T06:18:48.566Z,1057
2018-09-20T06:19:48.617Z,1087
2018-09-20T06:20:48.649Z,1108
2018-09-20T06:21:48.803Z,1116
2018-09-20T06:22:48.888Z,1121
2018-09-20T06:23:48.822Z,1130
2018-09-20T06:24:48.861Z,1127
2018-09-20T06:25:49.024Z,1151
2018-09-20T06:27:49.251Z,1201
2018-09-20T06:28:49.271Z,1218
2018-09-20T06:29:49.407Z,1247
2018-09-20T06:30:49.632Z,1238
2018-09-20T06:31:49.588Z,1240
2018-09-20T06:32:49.746Z,1219
2018-09-20T06:33:49.792Z,1239
2018-09-20T06:34:50.004Z,1255
2018-09-20T06:35:49.902Z,1276
2018-09-20T06:36:49.969Z,1277
2018-09-20T06:37:50.082Z,1298
2018-09-20T06:38:50.073Z,1304
2018-09-20T06:39:50.170Z,1330
2018-09-20T06:40:50.320Z,1360
2018-09-20T06:41:50.365Z,1375
2018-09-20T06:42:50.314Z,1384
2018-09-20T06:43:50.433Z,1391
2018-09-20T06:44:50.606Z,1409
2018-09-20T06:45:50.760Z,1411
2018-09-20T06:46:50.737Z,1435
2018-09-20T06:47:50.733Z,1440
2018-09-20T06:48:50.876Z,1455
2018-09-20T06:49:50.883Z,1457
2018-09-20T06:50:50.968Z,1473
2018-09-20T06:51:51.056Z,1482
2018-09-20T06:52:51.313Z,1475
2018-09-20T06:53:51.286Z,1480
2018-09-20T06:54:51.395Z,1512
2018-09-20T06:55:51.402Z,1547
2018-09-20T06:56:51.553Z,1556
2018-09-20T06:57:51.537Z,1562
2018-09-20T06:58:51.579Z,1567
2018-09-20T06:59:51.729Z,1608
2018-09-20T07:00:51.797Z,1645
2018-09-20T07:01:51.830Z,1654
2018-09-20T07:03:52.017Z,1643
2018-09-20T07:04:51.950Z,1647
2018-09-20T07:05:52.265Z,1661
2018-09-20T07:06:52.099Z,1700
2018-09-20T07:07:52.287Z,1730
2018-09-20T07:08:52.255Z,1749
2018-09-20T07:09:52.241Z,1754
2018-09-20T07:10:52.379Z,1773
2018-09-20T07:11:52.493Z,1785
2018-09-20T07:12:52.695Z,1796
2018-09-20T07:13:52.754Z,1798
2018-09-20T07:14:52.732Z,1820
2018-09-20T07:15:52.879Z,1836
2018-09-20T07:16:53.070Z,1839
2018-09-20T07:17:53.093Z,1824
2018-09-20T07:18:53.120Z,1796
2018-09-20T07:19:53.230Z,1863
2018-09-20T07:20:53.503Z,1944
2018-09-20T07:21:53.404Z,1935
2018-09-20T07:22:53.560Z,1900
2018-09-20T07:23:53.543Z,2006
2018-09-20T07:24:53.786Z,2193
2018-09-20T07:25:54.839Z,2489
2018-09-20T07:26:53.983Z,2841
2018-09-20T07:27:53.947Z,2896
2018-09-20T07:28:54.123Z,2602
2018-09-20T07:29:54.243Z,2334
2018-09-20T07:30:54.291Z,2152
2018-09-20T07:31:54.416Z,2135
2018-09-20T07:32:54.599Z,2095
2018-09-20T07:33:54.730Z,2073
2018-09-20T07:34:54.802Z,2080
2018-09-20T07:35:54.954Z,2136
2018-09-20T07:36:54.990Z,2192
2018-09-20T07:37:54.934Z,2211
2018-09-20T07:38:54.992Z,2183
2018-09-20T07:39:55.138Z,2148
2018-09-20T07:40:55.413Z,2138
2018-09-20T07:41:56.404Z,2134
2018-09-20T07:42:55.315Z,2140
2018-09-20T07:43:55.500Z,2136
2018-09-20T07:44:55.386Z,2173
2018-09-20T07:45:56.700Z,2179
2018-09-20T07:46:55.526Z,2163
2018-09-20T07:47:55.839Z,2250
2018-09-20T07:48:55.715Z,2293
2018-09-20T07:49:55.709Z,2314
2018-09-20T07:50:55.887Z,2284
2018-09-20T07:51:55.873Z,2361
2018-09-20T07:52:57.084Z,2424
2018-09-20T07:53:56.091Z,2452
2018-09-20T07:54:56.293Z,2447
2018-09-20T07:55:56.264Z,2662
2018-09-20T07:56:56.261Z,2802
2018-09-20T07:57:56.368Z,2921
2018-09-20T07:58:56.478Z,3021
2018-09-20T07:59:56.428Z,3030
2018-09-20T08:00:56.522Z,3089
2018-09-20T08:01:56.680Z,3086
2018-09-20T08:02:56.642Z,3105
2018-09-20T08:03:56.819Z,3104
2018-09-20T08:04:56.899Z,3109
2018-09-20T08:05:57.032Z,3145
2018-09-20T08:07:57.181Z,3176
2018-09-20T08:08:57.140Z,3210
2018-09-20T08:09:57.301Z,3195
2018-09-20T08:10:57.422Z,3181
2018-09-20T08:11:57.673Z,3173
2018-09-20T08:12:57.760Z,3226
2018-09-20T08:13:57.638Z,3213
2018-09-20T08:14:57.674Z,3206
2018-09-20T08:15:57.828Z,3218
2018-09-20T08:16:57.818Z,3215
2018-09-20T08:17:57.882Z,3238
2018-09-20T08:18:57.929Z,3203
2018-09-20T08:19:57.978Z,3218
2018-09-20T08:20:57.949Z,3212
2018-09-20T08:21:57.975Z,3271
2018-09-20T08:22:58.060Z,3221
2018-09-20T08:23:58.112Z,3257
2018-09-20T08:24:58.143Z,3242
2018-09-20T08:25:58.296Z,3242
2018-09-20T08:26:58.473Z,3258
2018-09-20T08:27:58.468Z,3245
2018-09-20T08:28:58.603Z,3255
2018-09-20T08:29:58.639Z,3245
2018-09-20T08:30:58.603Z,3257
2018-09-20T08:31:58.652Z,3244
2018-09-20T08:32:58.786Z,3261
2018-09-20T08:33:59.167Z,3340
2018-09-20T08:34:58.981Z,3338
2018-09-20T08:35:59.015Z,3354
2018-09-20T08:36:59.209Z,3410
2018-09-20T08:37:59.243Z,3411
2018-09-20T08:38:59.270Z,3394
2018-09-20T08:39:59.275Z,3432
2018-09-20T08:40:59.416Z,3441
2018-09-20T08:41:59.632Z,3441
2018-09-20T08:42:59.589Z,3452
2018-09-20T08:43:59.642Z,3487
2018-09-20T08:44:59.803Z,3518
2018-09-20T08:45:59.990Z,3546
2018-09-20T08:46:59.962Z,3550
2018-09-20T08:48:00.004Z,3637
2018-09-20T08:49:00.206Z,3599
2018-09-20T08:50:00.167Z,3589
2018-09-20T08:51:00.327Z,3622
2018-09-20T08:52:00.311Z,3650
2018-09-20T08:53:00.407Z,3668
2018-09-20T08:54:00.363Z,3667
2018-09-20T08:55:00.351Z,3699
2018-09-20T08:56:00.619Z,3704
2018-09-20T08:57:00.736Z,3729
2018-09-20T08:58:00.725Z,3795
2018-09-20T08:59:00.784Z,3769
2018-09-20T09:00:00.956Z,3765
2018-09-20T09:01:00.985Z,3798
2018-09-20T09:02:01.029Z,3825
2018-09-20T09:03:01.283Z,3909
2018-09-20T09:04:01.324Z,3892
2018-09-20T09:05:01.320Z,3931
2018-09-20T09:06:01.502Z,3960
2018-09-20T09:07:01.513Z,3975
2018-09-20T09:08:01.536Z,3972
2018-09-20T09:09:01.560Z,4017
2018-09-20T09:10:01.582Z,3992
2018-09-20T09:11:01.790Z,4002
2018-09-20T09:12:02.005Z,4074
2018-09-20T09:13:01.938Z,4078
2018-09-20T09:14:01.996Z,4108
2018-09-20T09:15:02.143Z,4121
2018-09-20T09:16:02.358Z,4159
2018-09-20T09:17:02.368Z,4146
2018-09-20T09:18:02.460Z,4227
2018-09-20T09:19:02.466Z,4211
2018-09-20T09:20:02.486Z,4216
2018-09-20T09:21:02.817Z,4207
2018-09-20T09:22:02.797Z,4245
2018-09-20T09:23:02.954Z,4266
2018-09-20T09:24:02.955Z,4333
2018-09-20T09:25:03.205Z,4348
2018-09-20T09:26:03.213Z,4335
2018-09-20T09:27:03.259Z,4336
2018-09-20T09:28:03.231Z,4366
2018-09-20T09:29:03.334Z,4361
2018-09-20T09:30:03.376Z,4366
2018-09-20T09:31:03.387Z,4358
2018-09-20T09:32:03.441Z,4359
2018-09-20T09:33:03.604Z,4431
2018-09-20T09:34:03.681Z,4353
2018-09-20T09:35:03.764Z,4448
2018-09-20T09:36:04.051Z,4453
2018-09-20T09:37:03.930Z,4449
2018-09-20T09:38:03.980Z,4448
2018-09-20T09:39:03.953Z,4443
2018-09-20T09:40:04.185Z,4458
2018-09-20T09:41:04.189Z,4500
2018-09-20T09:42:04.302Z,4476
2018-09-20T09:44:04.553Z,4560
2018-09-20T09:45:04.626Z,4487
2018-09-20T09:46:04.672Z,4548
2018-09-20T09:47:04.806Z,4543
2018-09-20T09:48:05.120Z,4543
2018-09-20T09:49:05.080Z,4543
2018-09-20T09:50:05.185Z,4513
2018-09-20T09:51:05.273Z,4530
2018-09-20T09:52:05.278Z,4597
2018-09-20T09:53:05.337Z,4530
2018-09-20T09:54:05.390Z,4646
2018-09-20T09:55:05.486Z,4600
2018-09-20T09:56:05.427Z,4613
2018-09-20T09:57:05.511Z,4638
2018-09-20T09:58:05.618Z,4623
2018-09-20T09:59:05.805Z,4629
2018-09-20T10:00:05.747Z,4652
2018-09-20T10:01:05.798Z,4605
2018-09-20T10:02:05.941Z,4613
2018-09-20T10:03:06.063Z,4651
2018-09-20T10:04:06.242Z,4623
2018-09-20T10:05:06.147Z,4636
2018-09-20T10:06:06.277Z,4744
2018-09-20T10:07:06.552Z,4752
2018-09-20T10:08:06.554Z,4787
2018-09-20T10:09:06.565Z,4797
2018-09-20T10:10:06.561Z,4811
2018-09-20T10:11:06.691Z,4757
2018-09-20T10:12:06.855Z,4782
2018-09-20T10:13:06.869Z,4838
2018-09-20T10:14:07.059Z,4832
2018-09-20T10:15:07.047Z,4740
2018-09-20T10:16:07.200Z,4828
2018-09-20T10:17:07.197Z,4857
2018-09-20T10:18:07.288Z,4869
2018-09-20T10:19:07.431Z,4887
2018-09-20T10:20:07.581Z,4903
2018-09-20T10:21:07.545Z,4839
2018-09-20T10:22:07.673Z,4828
2018-09-20T10:23:07.825Z,4973
2018-09-20T10:24:07.975Z,4915
2018-09-20T10:25:09.006Z,5018
2018-09-20T10:26:08.010Z,4959
2018-09-20T10:27:08.138Z,4950
2018-09-20T10:28:08.164Z,4810
2018-09-20T10:29:08.212Z,4986
2018-09-20T10:30:08.256Z,4985
2018-09-20T10:31:08.427Z,4929
2018-09-20T10:32:08.263Z,4998
2018-09-20T10:33:08.314Z,4871
2018-09-20T10:34:08.533Z,4775
2018-09-20T10:35:08.512Z,4861
2018-09-20T10:36:08.557Z,5020
2018-09-20T10:37:08.710Z,4993
2018-09-20T10:38:08.795Z,5010
2018-09-20T10:39:08.751Z,4959
2018-09-20T10:40:08.895Z,4945
2018-09-20T10:41:08.946Z,4974
2018-09-20T10:42:08.982Z,4944
2018-09-20T10:43:08.985Z,4980
2018-09-20T10:44:09.024Z,4989
2018-09-20T10:45:09.121Z,4958
2018-09-20T10:46:09.153Z,4964
2018-09-20T10:47:09.219Z,4945
2018-09-20T10:48:09.352Z,4958
2018-09-20T10:49:09.615Z,4956
2018-09-20T10:50:09.634Z,4962
2018-09-20T10:51:09.668Z,4930
2018-09-20T10:52:09.652Z,4951
2018-09-20T10:53:10.812Z,4990
2018-09-20T10:54:09.911Z,5046
2018-09-20T10:55:10.019Z,5016
2018-09-20T10:56:10.049Z,4948
2018-09-20T10:57:10.065Z,4941
2018-09-20T10:58:10.116Z,5015
2018-09-20T10:59:10.099Z,4972
2018-09-20T11:00:10.287Z,4992
2018-09-20T11:01:10.223Z,4969
2018-09-20T11:02:10.428Z,5096
2018-09-20T11:03:10.451Z,5086
2018-09-20T11:04:10.470Z,5086
2018-09-20T11:05:10.693Z,5074
2018-09-20T11:06:10.536Z,5052
2018-09-20T11:07:10.531Z,5055
2018-09-20T11:08:10.558Z,5041
2018-09-20T11:09:10.631Z,5036
2018-09-20T11:10:11.429Z,5075
2018-09-20T11:11:10.741Z,5071
2018-09-20T11:12:10.779Z,5067
2018-09-20T11:13:10.704Z,5029
2018-09-20T11:14:10.730Z,4992
2018-09-20T11:15:10.875Z,5021
2018-09-20T11:16:11.128Z,5002
2018-09-20T11:17:10.985Z,5003
2018-09-20T11:18:11.048Z,5040
2018-09-20T11:19:11.135Z,4981
2018-09-20T11:20:11.042Z,5014
2018-09-20T11:21:11.068Z,4996
2018-09-20T11:22:11.143Z,5032
2018-09-20T11:23:11.173Z,5047
2018-09-20T11:24:11.294Z,5025
2018-09-20T11:25:11.388Z,4962
2018-09-20T11:26:11.525Z,4996
2018-09-20T11:27:11.773Z,4971
2018-09-20T11:28:11.749Z,4999
2018-09-20T11:29:11.833Z,4976
2018-09-20T11:30:11.991Z,4957
2018-09-20T11:31:11.983Z,4971
2018-09-20T11:32:12.059Z,4994
2018-09-20T11:33:12.117Z,4997
2018-09-20T11:34:12.255Z,4935
2018-09-20T11:35:12.282Z,4989
2018-09-20T11:36:12.338Z,4963
2018-09-20T11:37:12.537Z,4951
2018-09-20T11:38:12.778Z,4980
2018-09-20T11:39:12.564Z,4937
2018-09-20T11:40:12.648Z,4966
2018-09-20T11:41:12.688Z,4930
2018-09-20T11:42:12.665Z,4964
2018-09-20T11:43:12.756Z,4966
2018-09-20T11:44:12.871Z,4941
2018-09-20T11:45:13.485Z,4949
2018-09-20T11:46:12.931Z,4945
2018-09-20T11:47:13.019Z,4956
2018-09-20T11:48:13.049Z,4950
2018-09-20T11:49:13.040Z,4948
2018-09-20T11:50:13.213Z,4943
2018-09-20T11:51:13.099Z,4925
2018-09-20T11:52:13.298Z,4949
2018-09-20T11:53:13.298Z,4971
2018-09-20T11:54:13.473Z,4982
2018-09-20T11:55:13.547Z,4991
2018-09-20T11:56:13.673Z,4940
2018-09-20T11:57:13.755Z,4944
2018-09-20T11:58:13.997Z,5014
2018-09-20T11:59:13.945Z,4971
2018-09-20T12:00:13.953Z,4927
2018-09-20T12:01:14.124Z,4971
2018-09-20T12:02:14.214Z,4970
2018-09-20T12:03:14.234Z,4972
2018-09-20T12:04:14.233Z,4962
2018-09-20T12:05:14.318Z,4987
2018-09-20T12:06:14.449Z,5000
2018-09-20T12:07:14.458Z,4942
2018-09-20T12:08:14.602Z,4935
2018-09-20T12:09:14.680Z,4941
2018-09-20T12:10:14.706Z,4931
2018-09-20T12:11:14.745Z,4959
2018-09-20T12:12:14.881Z,4922
2018-09-20T12:13:15.125Z,5125
2018-09-20T12:14:15.240Z,5016
2018-09-20T12:15:15.344Z,5023
2018-09-20T12:16:15.319Z,5048
2018-09-20T12:17:15.595Z,5083
2018-09-20T12:18:15.576Z,5079
2018-09-20T12:19:15.718Z,5078
2018-09-20T12:20:15.722Z,5094
2018-09-20T12:21:15.786Z,5089
2018-09-20T12:22:15.771Z,5070
2018-09-20T12:23:15.832Z,5038
2018-09-20T12:24:16.090Z,5039
2018-09-20T12:25:16.060Z,5049
2018-09-20T12:26:16.106Z,5091
2018-09-20T12:27:16.174Z,5112
2018-09-20T12:28:16.388Z,5049
2018-09-20T12:29:16.408Z,5082
2018-09-20T12:30:16.480Z,5104
2018-09-20T12:31:16.606Z,5117
2018-09-20T12:32:16.920Z,5107
2018-09-20T12:33:16.888Z,5109
2018-09-20T12:34:17.016Z,5119
2018-09-20T12:35:17.044Z,5123
2018-09-20T12:36:17.324Z,5160
2018-09-20T12:37:17.296Z,5145
2018-09-20T12:38:17.563Z,5203
2018-09-20T12:39:17.600Z,5186
2018-09-20T12:40:17.811Z,5185
2018-09-20T12:41:17.772Z,5164
2018-09-20T12:42:17.918Z,5193
2018-09-20T12:43:17.987Z,5217
2018-09-20T12:44:18.232Z,5211
2018-09-20T12:45:18.189Z,5216
2018-09-20T12:46:18.236Z,5235
2018-09-20T12:47:18.405Z,5226
2018-09-20T12:48:18.511Z,5253
2018-09-20T12:49:18.488Z,5280
2018-09-20T12:50:18.456Z,5280
2018-09-20T12:51:18.511Z,5252
2018-09-20T12:52:18.496Z,5280
2018-09-20T12:53:18.563Z,5281
2018-09-20T12:54:18.574Z,5326
2018-09-20T12:55:18.578Z,5337
2018-09-20T12:56:18.698Z,5351
2018-09-20T12:57:18.901Z,5410
2018-09-20T12:58:18.853Z,5399
2018-09-20T12:59:19.036Z,5418
2018-09-20T13:00:19.135Z,5452
2018-09-20T13:01:19.038Z,5428
2018-09-20T13:02:19.220Z,5432
2018-09-20T13:03:19.228Z,5501
2018-09-20T13:04:19.372Z,5487
2018-09-20T13:05:19.458Z,5477
2018-09-20T13:06:19.470Z,5520
2018-09-20T13:07:19.626Z,5524
2018-09-20T13:08:19.887Z,5549
2018-09-20T13:11:00.434Z,5543
2018-09-20T13:11:16.463Z,5532
2018-09-20T13:12:16.479Z,5658
2018-09-20T13:13:16.830Z,5672
2018-09-20T13:14:16.680Z,5667
2018-09-20T13:15:16.676Z,5795
2018-09-20T13:16:16.767Z,5858
2018-09-20T13:39:25.585Z,65535
2018-09-20T13:40:25.605Z,65535
2018-09-20T13:41:25.862Z,65535
2018-09-20T13:42:25.728Z,65535
2018-09-20T13:43:25.970Z,65535
2018-09-20T13:44:26.045Z,65535
2018-09-20T13:45:26.337Z,65535
2018-09-20T13:46:26.180Z,65535
2018-09-20T13:47:26.325Z,65535
2018-09-20T13:48:26.428Z,65535
2018-09-20T13:49:26.438Z,65535
2018-09-20T13:50:26.778Z,65535
2018-09-20T13:51:26.500Z,65535
2018-09-20T13:52:26.645Z,65535
2018-09-20T13:53:26.819Z,65535
2018-09-20T13:55:26.921Z,65535
2018-09-20T13:56:26.998Z,65535
2018-09-20T13:57:26.895Z,65535
2018-09-20T13:58:26.951Z,65535
2018-09-20T13:59:26.963Z,65535
2018-09-20T14:00:27.023Z,65535
2018-09-20T14:01:27.193Z,65535
2018-09-20T14:02:27.141Z,65535
2018-09-20T14:03:27.259Z,65535
2018-09-20T14:04:27.232Z,65535
2018-09-20T14:05:27.326Z,65535
2018-09-20T14:06:27.543Z,65535
2018-09-20T14:07:27.461Z,65535
2018-09-20T14:08:27.660Z,65535
2018-09-20T14:09:27.731Z,65535
2018-09-20T14:10:27.663Z,65535
2018-09-20T14:11:27.670Z,65535
2018-09-20T14:12:27.896Z,65535
2018-09-20T14:13:27.972Z,65535
2018-09-20T14:14:28.069Z,65535
2018-09-20T14:15:28.200Z,65535
2018-09-20T14:16:28.354Z,65535
2018-09-20T14:17:28.385Z,65535
2018-09-20T14:18:28.472Z,65535
2018-09-20T14:19:28.467Z,65535
2018-09-20T14:20:28.672Z,65535
2018-09-20T14:21:28.659Z,65535
2018-09-20T14:22:28.704Z,65535
2018-09-20T14:23:28.728Z,65535
2018-09-20T14:24:28.704Z,65535
2018-09-20T14:25:28.813Z,65535
2018-09-20T14:26:28.844Z,65535
2018-09-20T14:27:28.839Z,65535
2018-09-20T14:28:28.959Z,65535
2018-09-20T14:29:28.978Z,65535
2018-09-20T14:30:29.089Z,65535
2018-09-20T14:31:29.076Z,65535
2018-09-20T14:32:29.073Z,65535
2018-09-20T14:33:29.202Z,65535
2018-09-20T14:34:29.517Z,65535
2018-09-20T14:35:29.333Z,65535